createdAt,value
2019-02-19T00:02:23.662Z,71.15
2019-02-19T00:04:55.651Z,71.21
2019-02-19T00:07:27.541Z,71.26
2019-02-19T00:09:59.542Z,71.10
2019-02-19T00:12:31.538Z,71.17
2019-02-19T00:15:08.323Z,71.24
2019-02-19T00:17:37.998Z,71.20
2019-02-19T00:20:10.249Z,71.10
2019-02-19T00:22:43.431Z,71.16
2019-02-19T00:25:15.731Z,71.14
2019-02-19T00:27:48.066Z,71.08
2019-02-19T00:30:21.532Z,71.19
2019-02-19T00:32:53.728Z,71.19
2019-02-19T00:35:25.969Z,71.12
2019-02-19T00:37:58.019Z,71.15
2019-02-19T00:40:30.254Z,71.11
2019-02-19T00:43:02.459Z,71.15
2019-02-19T00:45:34.675Z,71.12
2019-02-19T00:48:06.811Z,71.14
2019-02-19T00:50:39.485Z,71.19
2019-02-19T00:53:11.486Z,71.09
2019-02-19T00:55:43.684Z,71.15
2019-02-19T00:58:16.023Z,71.24
2019-02-19T01:00:48.370Z,71.23
2019-02-19T01:03:20.439Z,71.16
2019-02-19T01:05:52.726Z,71.08
2019-02-19T01:08:24.707Z,71.11
2019-02-19T01:10:57.050Z,71.12
2019-02-19T01:13:29.428Z,71.07
2019-02-19T01:16:01.629Z,71.09
2019-02-19T01:18:34.456Z,71.15
2019-02-19T01:21:06.802Z,71.14
2019-02-19T01:23:39.012Z,71.05
2019-02-19T01:26:11.529Z,71.09
2019-02-19T01:28:43.653Z,71.11
2019-02-19T01:31:16.082Z,71.14
2019-02-19T01:33:48.261Z,71.06
2019-02-19T01:36:20.463Z,71.06
2019-02-19T01:38:52.883Z,71.05
2019-02-19T01:41:24.990Z,71.06
2019-02-19T01:43:57.177Z,71.10
2019-02-19T01:46:29.455Z,71.04
2019-02-19T01:49:01.541Z,71.09
2019-02-19T01:51:33.923Z,71.11
2019-02-19T01:54:06.196Z,71.00
2019-02-19T01:56:38.743Z,71.05
2019-02-19T01:59:10.970Z,70.91
2019-02-19T02:01:43.429Z,71.08
2019-02-19T02:04:15.679Z,71.11
2019-02-19T02:06:47.855Z,71.13
2019-02-19T02:09:20.388Z,71.09
2019-02-19T02:11:52.591Z,71.04
2019-02-19T02:14:24.703Z,71.00
2019-02-19T02:16:56.929Z,71.03
2019-02-19T02:19:29.098Z,71.01
2019-02-19T02:22:01.310Z,70.97
2019-02-19T02:24:33.449Z,71.04
2019-02-19T02:27:05.942Z,71.04
2019-02-19T02:29:38.101Z,71.03
2019-02-19T02:32:10.315Z,71.01
2019-02-19T02:34:42.418Z,71.06
2019-02-19T02:37:14.558Z,71.07
2019-02-19T02:39:46.840Z,71.07
2019-02-19T02:42:18.989Z,71.07
2019-02-19T02:44:51.157Z,70.98
2019-02-19T02:47:24.380Z,71.11
2019-02-19T02:49:56.523Z,71.07
2019-02-19T02:52:28.568Z,71.14
2019-02-19T02:55:00.788Z,71.23
2019-02-19T02:57:33.357Z,71.26
2019-02-19T03:00:05.703Z,71.28
2019-02-19T03:02:38.929Z,71.28
2019-02-19T03:05:10.856Z,71.28
2019-02-19T03:07:51.949Z,71.16
2019-02-19T03:10:24.110Z,71.10
2019-02-19T03:12:56.529Z,71.16
2019-02-19T03:15:28.607Z,70.97
2019-02-19T03:18:00.715Z,68.89
2019-02-19T03:20:32.871Z,70.07
2019-02-19T03:23:05.072Z,70.30
2019-02-19T03:25:37.474Z,70.39
2019-02-19T03:28:10.031Z,70.42
2019-02-19T03:30:42.177Z,70.45
2019-02-19T03:33:14.351Z,70.47
2019-02-19T03:35:46.542Z,70.50
2019-02-19T03:38:18.751Z,70.50
2019-02-19T03:40:51.065Z,70.53
2019-02-19T03:43:23.243Z,70.54
2019-02-19T03:45:55.562Z,70.54
2019-02-19T03:48:27.763Z,70.55
2019-02-19T03:51:00.122Z,70.54
2019-02-19T03:53:32.424Z,70.59
2019-02-19T03:56:04.584Z,70.54
2019-02-19T03:58:36.847Z,70.55
2019-02-19T04:01:08.724Z,70.53
2019-02-19T04:03:40.846Z,70.53
2019-02-19T04:06:13.100Z,70.54
2019-02-19T04:08:45.194Z,70.54
2019-02-19T04:11:17.416Z,70.59
2019-02-19T04:13:49.510Z,70.61
2019-02-19T04:16:21.715Z,70.63
2019-02-19T04:18:53.847Z,70.44
2019-02-19T04:21:26.014Z,70.38
2019-02-19T04:23:58.237Z,70.43
2019-02-19T04:26:30.329Z,70.22
2019-02-19T04:29:02.476Z,69.89
2019-02-19T04:31:34.769Z,69.96
2019-02-19T04:34:06.826Z,70.04
2019-02-19T04:36:39.163Z,70.11
2019-02-19T04:39:11.526Z,70.04
2019-02-19T04:41:43.625Z,69.64
2019-02-19T04:44:15.848Z,69.68
2019-02-19T04:46:48.009Z,69.38
2019-02-19T04:49:21.785Z,69.44
2019-02-19T04:51:53.938Z,69.08
2019-02-19T04:54:26.128Z,69.27
2019-02-19T04:56:58.496Z,69.54
2019-02-19T04:59:30.784Z,69.44
2019-02-19T05:02:02.938Z,69.59
2019-02-19T05:04:35.106Z,69.24
2019-02-19T05:07:07.344Z,69.07
2019-02-19T05:09:39.659Z,71.40
2019-02-19T05:12:12.716Z,69.74
2019-02-19T05:14:44.914Z,69.51
2019-02-19T05:17:17.025Z,69.23
2019-02-19T05:19:49.375Z,69.27
2019-02-19T05:22:21.733Z,69.09
2019-02-19T05:24:53.977Z,68.91
2019-02-19T05:27:26.348Z,68.71
2019-02-19T05:29:58.720Z,68.35
2019-02-19T05:32:30.961Z,67.23
2019-02-19T05:35:03.152Z,66.94
2019-02-19T05:37:35.265Z,67.26
2019-02-19T05:40:07.867Z,67.52
2019-02-19T05:42:40.137Z,67.59
2019-02-19T05:45:12.330Z,67.69
2019-02-19T05:47:44.655Z,67.89
2019-02-19T05:50:16.778Z,68.02
2019-02-19T05:52:48.939Z,68.09
2019-02-19T05:55:21.133Z,68.07
2019-02-19T05:57:53.214Z,68.10
2019-02-19T06:00:26.551Z,68.11
2019-02-19T06:02:58.647Z,68.10
2019-02-19T06:05:30.758Z,68.20
2019-02-19T06:08:02.938Z,68.11
2019-02-19T06:10:35.226Z,68.11
2019-02-19T06:13:07.628Z,68.21
2019-02-19T06:15:39.638Z,68.31
2019-02-19T06:18:11.853Z,68.22
2019-02-19T06:20:44.097Z,68.26
2019-02-19T06:23:16.461Z,68.43
2019-02-19T06:25:48.625Z,68.77
2019-02-19T06:28:20.630Z,69.05
2019-02-19T06:30:52.816Z,69.12
2019-02-19T06:33:26.098Z,69.14
2019-02-19T06:35:59.361Z,69.30
2019-02-19T06:38:31.631Z,69.26
2019-02-19T06:41:03.991Z,69.31
2019-02-19T06:43:36.269Z,69.00
2019-02-19T06:46:08.518Z,68.92
2019-02-19T06:48:40.849Z,68.58
2019-02-19T06:51:12.976Z,68.35
2019-02-19T06:53:45.330Z,68.27
2019-02-19T06:56:17.600Z,68.38
2019-02-19T06:58:50.851Z,68.51
2019-02-19T07:01:36.797Z,68.65
2019-02-19T07:04:15.359Z,68.61
2019-02-19T07:06:47.787Z,68.54
2019-02-19T07:09:20.138Z,68.47
2019-02-19T07:11:52.345Z,68.67
2019-02-19T07:14:24.459Z,68.71
2019-02-19T07:16:56.799Z,68.62
2019-02-19T07:19:28.920Z,68.36
2019-02-19T07:22:01.609Z,68.26
2019-02-19T07:24:34.048Z,68.45
2019-02-19T07:27:06.262Z,68.58
2019-02-19T07:29:38.418Z,68.66
2019-02-19T07:32:10.778Z,68.78
2019-02-19T07:34:43.183Z,68.80
2019-02-19T07:37:15.496Z,68.83
2019-02-19T07:39:47.891Z,68.88
2019-02-19T07:42:20.305Z,68.92
2019-02-19T07:44:52.603Z,68.96
2019-02-19T07:47:24.948Z,68.83
2019-02-19T07:49:57.125Z,68.89
2019-02-19T07:52:29.595Z,68.97
2019-02-19T07:55:01.811Z,68.92
2019-02-19T07:57:33.979Z,69.00
2019-02-19T08:00:06.183Z,69.01
2019-02-19T08:02:40.072Z,69.03
2019-02-19T08:05:12.326Z,69.07
2019-02-19T08:07:44.514Z,69.42
2019-02-19T08:10:17.783Z,69.64
2019-02-19T08:12:49.941Z,69.67
2019-02-19T08:15:22.401Z,69.72
2019-02-19T08:17:54.585Z,69.76
2019-02-19T08:20:26.963Z,69.80
2019-02-19T08:22:59.530Z,69.81
2019-02-19T08:25:32.835Z,69.82
2019-02-19T08:28:04.926Z,69.82
2019-02-19T08:30:37.179Z,69.81
2019-02-19T08:33:08.303Z,69.81
2019-02-19T08:35:40.754Z,69.82
2019-02-19T08:38:13.160Z,69.80
2019-02-19T08:40:45.299Z,69.80
2019-02-19T08:43:17.590Z,69.71
2019-02-19T08:45:49.943Z,69.76
2019-02-19T08:48:22.118Z,69.80
2019-02-19T08:50:54.384Z,69.83
2019-02-19T08:53:26.898Z,69.83
2019-02-19T08:55:59.068Z,69.88
2019-02-19T08:58:31.322Z,69.88
2019-02-19T09:01:03.899Z,69.96
2019-02-19T09:03:36.072Z,70.01
2019-02-19T09:06:08.316Z,70.02
2019-02-19T09:08:40.491Z,70.11
2019-02-19T09:11:12.636Z,70.17
2019-02-19T09:13:44.908Z,70.13
2019-02-19T09:16:17.248Z,70.11
2019-02-19T09:18:51.028Z,70.12
2019-02-19T09:21:23.070Z,70.00
2019-02-19T09:23:55.113Z,68.84
2019-02-19T09:26:27.410Z,68.59
2019-02-19T09:28:59.631Z,68.60
2019-02-19T09:31:32.544Z,68.83
2019-02-19T09:34:04.653Z,68.86
2019-02-19T09:36:36.866Z,68.92
2019-02-19T09:39:09.047Z,69.00
2019-02-19T09:41:41.604Z,69.02
2019-02-19T09:44:13.806Z,68.97
2019-02-19T09:46:46.208Z,68.97
2019-02-19T09:49:18.560Z,69.00
2019-02-19T09:51:50.920Z,69.01
2019-02-19T09:54:23.086Z,69.04
2019-02-19T09:56:55.423Z,68.99
2019-02-19T09:59:27.631Z,69.06
2019-02-19T10:02:00.331Z,69.01
2019-02-19T10:04:32.564Z,69.02
2019-02-19T10:07:04.926Z,69.06
2019-02-19T10:09:37.272Z,69.08
2019-02-19T10:12:09.520Z,69.04
2019-02-19T10:14:41.712Z,69.10
2019-02-19T10:17:14.000Z,69.13
2019-02-19T10:19:46.202Z,69.12
2019-02-19T10:22:18.684Z,69.12
2019-02-19T10:24:52.405Z,69.12
2019-02-19T10:27:24.711Z,69.15
2019-02-19T10:29:56.880Z,69.17
2019-02-19T10:32:29.288Z,69.20
2019-02-19T10:35:01.423Z,69.21
2019-02-19T10:37:33.849Z,69.18
2019-02-19T10:40:06.238Z,69.20
2019-02-19T10:42:38.507Z,69.25
2019-02-19T10:45:11.303Z,69.21
2019-02-19T10:47:43.877Z,69.24
2019-02-19T10:50:16.047Z,69.28
2019-02-19T10:52:48.258Z,69.30
2019-02-19T10:55:20.418Z,69.29
2019-02-19T10:57:52.681Z,69.30
2019-02-19T11:00:25.356Z,69.29
2019-02-19T11:02:57.486Z,69.27
2019-02-19T11:05:29.624Z,69.28
2019-02-19T11:08:01.724Z,69.35
2019-02-19T11:10:33.844Z,69.41
2019-02-19T11:13:06.163Z,69.35
2019-02-19T11:15:39.890Z,69.45
2019-02-19T11:18:12.145Z,69.47
2019-02-19T11:20:44.624Z,69.44
2019-02-19T11:23:16.848Z,69.47
2019-02-19T11:25:49.272Z,69.49
2019-02-19T11:28:21.256Z,69.49
2019-02-19T11:30:53.626Z,69.51
2019-02-19T11:33:25.671Z,69.55
2019-02-19T11:35:58.054Z,69.56
2019-02-19T11:38:30.609Z,69.58
2019-02-19T11:41:02.867Z,69.61
2019-02-19T11:43:35.094Z,69.60
2019-02-19T11:46:07.672Z,69.65
2019-02-19T11:48:39.842Z,69.62
2019-02-19T11:51:12.257Z,69.68
2019-02-19T11:53:44.471Z,69.66
2019-02-19T11:56:16.864Z,69.72
2019-02-19T11:58:48.912Z,69.74
2019-02-19T12:01:21.167Z,69.74
2019-02-19T12:03:53.417Z,69.72
2019-02-19T12:06:25.529Z,69.79
2019-02-19T12:08:57.962Z,69.80
2019-02-19T12:11:30.348Z,69.78
2019-02-19T12:14:02.454Z,69.82
2019-02-19T12:16:35.274Z,69.88
2019-02-19T12:19:07.384Z,69.85
2019-02-19T12:21:39.664Z,69.90
2019-02-19T12:24:11.992Z,69.91
2019-02-19T12:26:44.112Z,69.92
2019-02-19T12:29:16.427Z,69.97
2019-02-19T12:31:48.685Z,70.01
2019-02-19T12:34:21.019Z,70.09
2019-02-19T12:36:53.210Z,70.14
2019-02-19T12:39:25.460Z,70.18
2019-02-19T12:41:57.625Z,70.16
2019-02-19T12:44:29.868Z,70.22
2019-02-19T12:47:02.463Z,70.17
2019-02-19T12:49:35.309Z,70.24
2019-02-19T12:52:08.616Z,70.29
2019-02-19T12:54:40.858Z,70.63
2019-02-19T12:57:14.686Z,70.85
2019-02-19T12:59:47.261Z,70.65
2019-02-19T13:02:19.767Z,70.79
2019-02-19T13:04:53.138Z,70.94
2019-02-19T13:07:25.214Z,71.04
2019-02-19T13:09:58.302Z,71.13
2019-02-19T13:12:30.737Z,71.17
2019-02-19T13:15:03.030Z,71.22
2019-02-19T13:17:36.454Z,71.30
2019-02-19T13:20:10.125Z,71.36
2019-02-19T13:22:42.272Z,71.43
2019-02-19T13:25:15.519Z,71.47
2019-02-19T13:27:47.953Z,71.51
2019-02-19T13:30:20.216Z,71.56
2019-02-19T13:32:52.372Z,71.59
2019-02-19T13:35:24.521Z,71.62
2019-02-19T13:37:56.898Z,71.52
2019-02-19T13:40:29.300Z,71.58
2019-02-19T13:43:01.663Z,71.65
2019-02-19T13:45:34.238Z,71.81
2019-02-19T13:48:06.446Z,71.93
2019-02-19T13:50:38.677Z,72.00
2019-02-19T13:53:30.461Z,72.52
2019-02-19T13:56:04.205Z,72.03
2019-02-19T13:58:36.414Z,72.13
2019-02-19T14:01:09.604Z,72.32
2019-02-19T14:03:41.790Z,72.20
2019-02-19T14:06:14.068Z,72.07
2019-02-19T14:08:46.080Z,71.85
2019-02-19T14:11:18.395Z,71.95
2019-02-19T14:14:05.411Z,72.30
2019-02-19T14:16:47.548Z,72.43
2019-02-19T14:19:38.010Z,72.45
2019-02-19T14:22:29.943Z,72.47
2019-02-19T14:25:14.215Z,72.48
2019-02-19T14:28:03.787Z,72.47
2019-02-19T14:30:55.689Z,72.47
2019-02-19T14:33:55.498Z,72.46
2019-02-19T14:36:44.923Z,72.45
2019-02-19T14:39:48.740Z,72.45
2019-02-19T14:42:46.776Z,72.45
2019-02-19T14:45:52.915Z,72.44
2019-02-19T14:48:46.695Z,72.41
2019-02-19T14:51:52.970Z,72.36
2019-02-19T14:54:48.896Z,72.31
2019-02-19T14:57:30.983Z,72.07
2019-02-19T15:00:24.970Z,71.97
2019-02-19T15:03:16.613Z,72.03
2019-02-19T15:06:13.541Z,72.14
2019-02-19T15:09:16.786Z,72.06
2019-02-19T15:12:07.818Z,71.96
2019-02-19T15:15:01.618Z,72.06
2019-02-19T15:17:42.565Z,72.33
2019-02-19T15:20:31.783Z,72.42
2019-02-19T15:23:31.772Z,72.50
2019-02-19T15:26:20.947Z,72.55
2019-02-19T15:29:10.623Z,72.59
2019-02-19T15:31:58.828Z,72.60
2019-02-19T15:34:50.091Z,72.59
2019-02-19T15:37:28.403Z,72.60
2019-02-19T15:40:22.107Z,72.61
2019-02-19T15:43:07.765Z,72.61
2019-02-19T15:45:57.038Z,72.53
2019-02-19T15:48:54.148Z,72.51
2019-02-19T15:52:03.404Z,72.57
2019-02-19T15:54:52.812Z,72.58
2019-02-19T15:57:42.847Z,72.58
2019-02-19T16:00:40.003Z,72.61
2019-02-19T16:03:19.154Z,72.63
2019-02-19T16:06:22.162Z,72.63
2019-02-19T16:09:03.513Z,72.67
2019-02-19T16:11:48.468Z,72.68
2019-02-19T16:14:39.238Z,72.68
2019-02-19T16:17:28.388Z,72.72
2019-02-19T16:20:06.790Z,72.88
2019-02-19T16:23:00.511Z,72.77
2019-02-19T16:25:48.093Z,72.76
2019-02-19T16:28:30.747Z,72.83
2019-02-19T16:31:21.609Z,72.87
2019-02-19T16:34:27.908Z,71.03
2019-02-19T16:37:21.765Z,70.68
2019-02-19T16:40:11.492Z,71.13
2019-02-19T16:43:05.852Z,70.85
2019-02-19T16:45:56.928Z,70.80
2019-02-19T16:48:53.686Z,70.90
2019-02-19T16:51:42.931Z,70.98
2019-02-19T16:54:35.656Z,71.12
2019-02-19T16:57:29.515Z,71.70
2019-02-19T17:00:09.386Z,72.07
2019-02-19T17:02:57.952Z,72.24
2019-02-19T17:05:36.750Z,72.30
2019-02-19T17:08:27.443Z,72.39
2019-02-19T17:11:10.480Z,71.25
2019-02-19T17:14:20.150Z,70.10
2019-02-19T17:17:17.246Z,69.94
2019-02-19T17:20:04.745Z,70.01
2019-02-19T17:23:03.662Z,70.18
2019-02-19T17:25:53.243Z,69.96
2019-02-19T17:28:47.544Z,69.71
2019-02-19T17:31:30.628Z,69.67
2019-02-19T17:34:30.883Z,69.89
2019-02-19T17:37:18.314Z,69.82
2019-02-19T17:40:15.468Z,69.66
2019-02-19T17:43:09.759Z,69.53
2019-02-19T17:46:13.105Z,69.55
2019-02-19T17:49:05.731Z,69.67
2019-02-19T17:52:08.644Z,69.78
2019-02-19T17:54:58.601Z,70.11
2019-02-19T17:57:38.401Z,70.08
2019-02-19T18:00:23.719Z,69.91
2019-02-19T18:03:26.782Z,70.07
2019-02-19T18:09:01.433Z,70.10
2019-02-19T18:11:56.621Z,70.07
2019-02-19T18:15:05.997Z,70.19
2019-02-19T18:18:05.672Z,70.68
2019-02-19T18:20:47.110Z,71.12
2019-02-19T18:23:12.215Z,71.20
2019-02-19T18:25:44.728Z,71.29
2019-02-19T18:28:17.190Z,71.37
2019-02-19T18:30:50.842Z,71.11
2019-02-19T18:33:23.085Z,71.34
2019-02-19T18:35:55.412Z,71.41
2019-02-19T18:38:27.752Z,71.27
2019-02-19T18:41:00.080Z,71.18
2019-02-19T18:43:32.349Z,71.51
2019-02-19T18:46:04.737Z,71.39
2019-02-19T18:48:37.112Z,71.41
2019-02-19T18:51:09.554Z,71.52
2019-02-19T18:53:41.932Z,71.33
2019-02-19T18:56:14.341Z,71.41
2019-02-19T18:58:46.742Z,71.41
2019-02-19T19:01:18.986Z,71.31
2019-02-19T19:03:51.093Z,71.58
2019-02-19T19:06:23.502Z,71.57
2019-02-19T19:08:55.895Z,71.57
2019-02-19T19:11:28.363Z,71.70
2019-02-19T19:14:00.578Z,71.66
2019-02-19T19:16:32.849Z,71.69
2019-02-19T19:19:05.118Z,71.67
2019-02-19T19:21:37.611Z,71.74
2019-02-19T19:24:10.034Z,71.87
2019-02-19T19:26:42.522Z,71.86
2019-02-19T19:29:14.884Z,71.79
2019-02-19T19:31:47.407Z,71.75
2019-02-19T19:34:19.588Z,71.48
2019-02-19T19:36:52.120Z,71.56
2019-02-19T19:39:24.742Z,71.65
2019-02-19T19:41:57.207Z,71.57
2019-02-19T19:44:29.467Z,71.65
2019-02-19T19:47:03.066Z,71.80
2019-02-19T19:49:35.465Z,71.80
2019-02-19T19:52:07.924Z,71.56
2019-02-19T19:54:40.326Z,71.60
2019-02-19T19:57:13.622Z,71.61
2019-02-19T19:59:46.050Z,71.83
2019-02-19T20:02:19.966Z,71.88
2019-02-19T20:04:53.318Z,71.71
2019-02-19T20:07:25.561Z,71.75
2019-02-19T20:09:58.028Z,71.84
2019-02-19T20:12:30.495Z,71.82
2019-02-19T20:15:02.978Z,71.91
2019-02-19T20:17:35.328Z,71.95
2019-02-19T20:20:08.153Z,71.77
2019-02-19T20:22:40.595Z,71.93
2019-02-19T20:25:13.116Z,71.93
2019-02-19T20:27:45.639Z,71.63
2019-02-19T20:30:18.329Z,71.82
2019-02-19T20:32:50.917Z,71.92
2019-02-19T20:35:23.430Z,71.91
2019-02-19T20:37:55.762Z,71.94
2019-02-19T20:40:28.334Z,71.77
2019-02-19T20:43:00.601Z,71.82
2019-02-19T20:45:33.201Z,71.80
2019-02-19T20:48:05.842Z,71.95
2019-02-19T20:50:38.389Z,71.89
2019-02-19T20:53:10.751Z,71.93
2019-02-19T20:55:43.134Z,71.94
2019-02-19T20:58:15.558Z,71.91
2019-02-19T21:00:47.754Z,71.97
2019-02-19T21:03:20.009Z,71.96
2019-02-19T21:05:52.445Z,72.07
2019-02-19T21:08:24.776Z,72.02
2019-02-19T21:10:57.029Z,72.03
2019-02-19T21:13:29.309Z,71.80
2019-02-19T21:16:01.697Z,71.80
2019-02-19T21:18:34.088Z,71.92
2019-02-19T21:21:07.365Z,71.96
2019-02-19T21:23:39.582Z,71.99
2019-02-19T21:26:11.879Z,71.99
2019-02-19T21:28:44.298Z,71.98
2019-02-19T21:31:16.780Z,72.00
2019-02-19T21:33:49.099Z,71.97
2019-02-19T21:36:21.479Z,72.07
2019-02-19T21:38:53.885Z,71.98
2019-02-19T21:41:26.252Z,71.93
2019-02-19T21:43:58.637Z,72.06
2019-02-19T21:46:31.014Z,72.09
2019-02-19T21:49:03.229Z,72.07
2019-02-19T21:51:35.537Z,72.15
2019-02-19T21:54:07.879Z,72.20
2019-02-19T21:56:41.734Z,72.19
2019-02-19T21:59:15.307Z,72.12
2019-02-19T22:01:47.588Z,72.17
2019-02-19T22:04:20.047Z,72.11
2019-02-19T22:06:52.331Z,72.12
2019-02-19T22:09:24.595Z,72.08
2019-02-19T22:11:56.880Z,72.14
2019-02-19T22:14:29.205Z,72.14
2019-02-19T22:17:01.471Z,72.21
2019-02-19T22:19:33.763Z,72.09
2019-02-19T22:22:10.431Z,72.12
2019-02-19T22:24:42.720Z,72.16
2019-02-19T22:27:15.064Z,72.16
2019-02-19T22:29:47.387Z,72.12
2019-02-19T22:32:21.035Z,72.16
2019-02-19T22:34:53.358Z,72.14
2019-02-19T22:37:25.825Z,72.12
2019-02-19T22:39:58.314Z,72.01
2019-02-19T22:42:31.711Z,72.08
2019-02-19T22:45:04.130Z,72.05
2019-02-19T22:47:37.428Z,72.04
2019-02-19T22:50:09.841Z,72.03
2019-02-19T22:52:42.088Z,72.06
2019-02-19T22:55:42.206Z,72.05
2019-02-19T22:58:14.528Z,72.05
2019-02-19T23:01:14.806Z,72.04
2019-02-19T23:03:47.508Z,72.08
2019-02-19T23:06:19.902Z,72.14
2019-02-19T23:08:52.378Z,71.96
2019-02-19T23:11:25.838Z,71.99
2019-02-19T23:13:58.250Z,71.92
2019-02-19T23:16:30.765Z,71.99
2019-02-19T23:19:03.333Z,71.98
2019-02-19T23:21:36.120Z,71.90
2019-02-19T23:24:08.517Z,71.96
2019-02-19T23:26:40.854Z,71.88
2019-02-19T23:29:13.496Z,71.99
2019-02-19T23:31:45.819Z,71.91
2019-02-19T23:34:18.393Z,71.97
2019-02-19T23:37:08.099Z,72.02
2019-02-19T23:39:43.543Z,72.04
2019-02-19T23:42:14.708Z,72.06
2019-02-19T23:44:47.364Z,72.01
2019-02-19T23:47:19.768Z,71.96
2019-02-19T23:49:52.226Z,72.01
2019-02-19T23:52:30.271Z,72.00
2019-02-19T23:54:58.530Z,71.98
2019-02-19T23:57:30.926Z,72.04
